createdAt,value
2022-11-25T00:01:25.589Z,19.73
2022-11-25T00:03:54.883Z,15.82
2022-11-25T00:06:30.576Z,19.02
2022-11-25T00:09:03.270Z,22.52
2022-11-25T00:11:30.469Z,19.38
2022-11-25T00:13:58.181Z,18.10
2022-11-25T00:16:29.007Z,16.00
2022-11-25T00:18:57.809Z,13.65
2022-11-25T00:21:27.600Z,13.82
2022-11-25T00:24:03.238Z,14.93
2022-11-25T00:26:34.547Z,15.65
2022-11-25T00:29:03.549Z,11.93
2022-11-25T00:31:33.547Z,15.57
2022-11-25T00:34:00.353Z,15.30
2022-11-25T00:36:31.292Z,17.80
2022-11-25T00:39:04.645Z,19.58
2022-11-25T00:41:50.209Z,18.15
2022-11-25T00:44:38.647Z,16.45
2022-11-25T00:47:20.560Z,18.20
2022-11-25T00:49:49.557Z,16.45
2022-11-25T00:52:27.113Z,15.23
2022-11-25T00:54:54.404Z,15.02
2022-11-25T00:57:23.198Z,15.32
2022-11-25T00:59:50.037Z,15.32
2022-11-25T01:02:18.602Z,12.68
2022-11-25T01:04:46.045Z,17.33
2022-11-25T01:07:13.343Z,18.13
2022-11-25T01:09:40.584Z,18.35
2022-11-25T01:12:07.516Z,15.80
2022-11-25T01:14:34.997Z,13.65
2022-11-25T01:17:02.089Z,12.57
2022-11-25T01:19:29.207Z,12.07
2022-11-25T01:21:56.372Z,14.38
2022-11-25T01:24:24.246Z,15.38
2022-11-25T01:26:51.189Z,14.25
2022-11-25T01:29:19.061Z,15.45
2022-11-25T01:31:46.999Z,14.38
2022-11-25T01:34:19.676Z,13.10
2022-11-25T01:36:47.281Z,12.93
2022-11-25T01:39:24.345Z,12.65
2022-11-25T01:41:53.717Z,11.60
2022-11-25T01:44:23.185Z,11.15
2022-11-25T01:47:01.745Z,11.18
2022-11-25T01:49:49.440Z,9.43
2022-11-25T01:52:30.560Z,7.55
2022-11-25T01:55:06.747Z,9.65
2022-11-25T01:57:51.794Z,11.13
2022-11-25T02:00:19.126Z,9.77
2022-11-25T02:02:48.172Z,10.90
2022-11-25T02:05:20.251Z,10.88
2022-11-25T02:07:49.671Z,13.60
2022-11-25T02:10:24.129Z,11.30
2022-11-25T02:12:51.959Z,12.00
2022-11-25T02:15:19.045Z,13.00
2022-11-25T02:17:46.437Z,9.45
2022-11-25T02:20:19.307Z,10.80
2022-11-25T02:22:54.787Z,17.35
2022-11-25T02:25:34.246Z,14.13
2022-11-25T02:28:29.752Z,16.40
2022-11-25T02:30:57.389Z,13.00
2022-11-25T02:33:24.681Z,15.65
2022-11-25T02:36:01.846Z,12.98
2022-11-25T02:38:50.772Z,16.00
2022-11-25T02:41:31.635Z,15.10
2022-11-25T02:43:59.208Z,13.25
2022-11-25T02:46:28.012Z,13.10
2022-11-25T02:49:12.721Z,15.40
2022-11-25T02:51:43.773Z,12.40
2022-11-25T02:54:15.729Z,13.23
2022-11-25T02:56:42.600Z,15.15
2022-11-25T02:59:10.338Z,15.68
2022-11-25T03:01:38.516Z,13.80
2022-11-25T03:04:06.111Z,15.63
2022-11-25T03:06:33.757Z,15.52
2022-11-25T03:09:00.615Z,13.55
2022-11-25T03:11:47.345Z,13.52
2022-11-25T03:14:14.569Z,12.80
2022-11-25T03:16:41.469Z,16.40
2022-11-25T03:19:08.636Z,14.57
2022-11-25T03:21:35.499Z,15.20
2022-11-25T03:24:02.601Z,15.50
2022-11-25T03:26:29.815Z,16.48
2022-11-25T03:28:56.546Z,14.70
2022-11-25T03:31:23.416Z,12.57
2022-11-25T03:33:50.228Z,13.60
2022-11-25T03:36:16.938Z,12.88
2022-11-25T03:38:43.796Z,11.27
2022-11-25T03:41:11.044Z,11.18
2022-11-25T03:43:37.993Z,13.77
2022-11-25T03:46:05.069Z,13.52
2022-11-25T03:48:31.903Z,12.02
2022-11-25T03:50:59.090Z,12.15
2022-11-25T03:53:26.188Z,11.43
2022-11-25T03:55:52.948Z,12.82
2022-11-25T03:58:19.732Z,11.65
2022-11-25T04:00:46.917Z,11.73
2022-11-25T04:03:13.840Z,10.30
2022-11-25T04:05:41.240Z,11.02
2022-11-25T04:08:08.206Z,10.07
2022-11-25T04:10:35.454Z,12.48
2022-11-25T04:13:02.265Z,13.50
2022-11-25T04:15:29.041Z,11.38
2022-11-25T04:17:56.213Z,10.10
2022-11-25T04:20:23.341Z,9.73
2022-11-25T04:22:50.032Z,12.40
2022-11-25T04:25:17.311Z,9.80
2022-11-25T04:27:44.786Z,9.90
2022-11-25T04:30:12.124Z,12.02
2022-11-25T04:32:39.037Z,11.50
2022-11-25T04:35:06.231Z,14.80
2022-11-25T04:37:32.993Z,11.25
2022-11-25T04:39:59.710Z,10.63
2022-11-25T04:42:32.228Z,10.70
2022-11-25T04:45:23.352Z,10.00
2022-11-25T04:47:50.970Z,9.50
2022-11-25T04:50:21.472Z,10.88
2022-11-25T04:52:48.401Z,15.13
2022-11-25T04:55:15.379Z,9.38
2022-11-25T04:57:42.179Z,9.52
2022-11-25T05:00:09.834Z,8.95
2022-11-25T05:02:37.090Z,8.20
2022-11-25T05:05:05.236Z,8.27
2022-11-25T05:07:32.056Z,8.63
2022-11-25T05:09:58.933Z,8.50
2022-11-25T05:12:29.495Z,7.82
2022-11-25T05:14:57.364Z,9.88
2022-11-25T05:17:27.845Z,10.00
2022-11-25T05:19:55.046Z,10.02
2022-11-25T05:22:25.274Z,9.77
2022-11-25T05:24:52.581Z,10.02
2022-11-25T05:27:20.445Z,7.82
2022-11-25T05:29:50.232Z,8.50
2022-11-25T05:32:21.164Z,6.88
2022-11-25T05:34:47.984Z,8.63
2022-11-25T05:37:18.714Z,9.40
2022-11-25T05:39:48.016Z,9.30
2022-11-25T05:42:14.729Z,9.15
2022-11-25T05:44:41.465Z,7.07
2022-11-25T05:47:08.571Z,7.10
2022-11-25T05:49:35.359Z,7.28
2022-11-25T05:52:02.186Z,8.52
2022-11-25T05:54:29.103Z,7.80
2022-11-25T05:56:56.241Z,8.38
2022-11-25T05:59:23.067Z,7.85
2022-11-25T06:01:52.504Z,7.95
2022-11-25T06:04:19.247Z,7.88
2022-11-25T06:06:45.998Z,8.98
2022-11-25T06:09:12.815Z,9.50
2022-11-25T06:11:39.578Z,13.98
2022-11-25T06:14:06.852Z,10.45
2022-11-25T06:16:34.039Z,8.38
2022-11-25T06:19:05.628Z,8.88
2022-11-25T06:21:32.752Z,6.90
2022-11-25T06:23:59.970Z,6.85
2022-11-25T06:26:26.754Z,7.03
2022-11-25T06:28:55.805Z,6.70
2022-11-25T06:31:24.553Z,7.53
2022-11-25T06:33:53.039Z,7.05
2022-11-25T06:36:21.009Z,7.10
2022-11-25T06:38:53.201Z,11.05
2022-11-25T06:41:22.130Z,10.38
2022-11-25T06:43:49.000Z,15.32
2022-11-25T06:46:23.074Z,14.18
2022-11-25T06:48:51.730Z,8.48
2022-11-25T06:51:18.519Z,7.85
2022-11-25T06:53:45.419Z,6.78
2022-11-25T06:56:15.780Z,7.50
2022-11-25T06:58:43.766Z,8.30
2022-11-25T07:01:15.585Z,9.32
2022-11-25T07:03:43.623Z,23.35
2022-11-25T07:06:13.027Z,11.32
2022-11-25T07:08:40.454Z,32.50
2022-11-25T07:11:11.581Z,31.45
2022-11-25T07:13:38.410Z,24.95
2022-11-25T07:16:06.632Z,38.78
2022-11-25T07:18:36.756Z,24.73
2022-11-25T07:21:15.040Z,20.98
2022-11-25T07:23:43.306Z,23.85
2022-11-25T07:26:21.884Z,21.45
2022-11-25T07:28:50.499Z,23.42
2022-11-25T07:31:24.874Z,25.08
2022-11-25T07:34:00.847Z,29.90
2022-11-25T07:36:29.960Z,33.22
2022-11-25T07:38:59.088Z,28.40
2022-11-25T07:41:26.892Z,20.48
2022-11-25T07:43:56.780Z,23.27
2022-11-25T07:46:38.856Z,19.98
2022-11-25T07:49:09.971Z,19.73
2022-11-25T07:51:39.080Z,27.48
2022-11-25T07:54:07.936Z,26.95
2022-11-25T07:56:36.855Z,31.27
2022-11-25T07:59:04.479Z,32.28
2022-11-25T08:01:31.468Z,31.42
2022-11-25T08:03:58.696Z,30.33
2022-11-25T08:06:28.235Z,26.40
2022-11-25T08:08:57.272Z,25.33
2022-11-25T08:11:27.738Z,31.02
2022-11-25T08:13:55.248Z,30.20
2022-11-25T08:16:26.309Z,32.55
2022-11-25T08:18:55.112Z,24.80
2022-11-25T08:21:22.296Z,29.73
2022-11-25T08:23:49.598Z,31.15
2022-11-25T08:26:30.241Z,29.95
2022-11-25T08:29:01.096Z,26.83
2022-11-25T08:31:37.532Z,20.90
2022-11-25T08:34:06.860Z,19.65
2022-11-25T08:36:35.547Z,22.67
2022-11-25T08:39:22.505Z,20.55
2022-11-25T08:41:53.057Z,10.93
2022-11-25T08:44:19.845Z,11.13
2022-11-25T08:46:46.787Z,11.48
2022-11-25T08:49:16.802Z,8.63
2022-11-25T08:51:43.659Z,8.63
2022-11-25T08:54:10.390Z,9.27
2022-11-25T08:56:37.261Z,8.68
2022-11-25T08:59:04.685Z,7.70
2022-11-25T09:01:32.332Z,6.60
2022-11-25T09:03:59.730Z,7.05
2022-11-25T09:06:28.196Z,7.40
2022-11-25T09:08:57.472Z,7.20
2022-11-25T09:11:25.651Z,6.35
2022-11-25T09:13:53.237Z,6.25
2022-11-25T09:16:21.074Z,6.10
2022-11-25T09:18:54.095Z,7.03
2022-11-25T09:21:24.862Z,5.80
2022-11-25T09:23:54.008Z,6.97
2022-11-25T09:26:27.622Z,9.18
2022-11-25T09:28:55.380Z,7.40
2022-11-25T09:31:23.288Z,8.32
2022-11-25T09:33:50.905Z,7.55
2022-11-25T09:36:19.371Z,6.60
2022-11-25T09:38:46.540Z,6.68
2022-11-25T09:41:46.429Z,7.82
2022-11-25T09:44:57.494Z,8.52
2022-11-25T09:47:48.224Z,6.95
2022-11-25T09:50:34.453Z,7.25
2022-11-25T09:53:43.473Z,6.30
2022-11-25T09:56:34.772Z,6.43
2022-11-25T09:59:29.504Z,6.22
2022-11-25T10:02:09.873Z,9.00
2022-11-25T10:04:53.663Z,8.48
2022-11-25T10:07:33.275Z,7.90
2022-11-25T10:10:03.436Z,8.10
2022-11-25T10:12:42.380Z,7.70
2022-11-25T10:15:33.307Z,8.82
2022-11-25T10:18:39.590Z,8.32
2022-11-25T10:21:06.559Z,7.15
2022-11-25T10:23:36.973Z,6.70
2022-11-25T10:26:14.212Z,6.95
2022-11-25T10:28:49.899Z,6.80
2022-11-25T10:31:20.613Z,5.60
2022-11-25T10:33:53.755Z,4.45
2022-11-25T10:36:33.577Z,4.78
2022-11-25T10:39:24.610Z,5.10
2022-11-25T10:42:03.469Z,5.10
2022-11-25T10:44:41.368Z,6.55
2022-11-25T10:47:36.774Z,6.90
2022-11-25T10:50:25.058Z,6.35
2022-11-25T10:53:10.092Z,5.70
2022-11-25T10:55:37.368Z,6.20
2022-11-25T10:58:26.782Z,7.88
2022-11-25T11:01:25.347Z,7.22
2022-11-25T11:04:05.138Z,6.70
2022-11-25T11:06:41.594Z,6.53
2022-11-25T11:09:38.887Z,6.63
2022-11-25T11:12:26.910Z,6.53
2022-11-25T11:15:13.968Z,5.45
2022-11-25T11:17:40.798Z,6.32
2022-11-25T11:20:07.493Z,7.55
2022-11-25T11:22:50.371Z,7.03
2022-11-25T11:25:19.860Z,6.15
2022-11-25T11:27:47.343Z,5.97
2022-11-25T11:30:20.935Z,6.40
2022-11-25T11:33:04.311Z,5.78
2022-11-25T11:35:49.867Z,7.78
2022-11-25T11:38:22.369Z,6.68
2022-11-25T11:41:00.543Z,7.25
2022-11-25T11:43:39.357Z,7.00
2022-11-25T11:46:14.847Z,6.40
2022-11-25T11:48:53.132Z,7.20
2022-11-25T11:51:32.499Z,5.93
2022-11-25T11:54:08.393Z,5.50
2022-11-25T11:56:40.693Z,7.40
2022-11-25T11:59:21.307Z,7.65
2022-11-25T12:01:57.705Z,8.30
2022-11-25T12:04:41.883Z,8.85
2022-11-25T12:07:38.116Z,8.98
2022-11-25T12:10:14.099Z,8.10
2022-11-25T12:12:50.850Z,9.45
2022-11-25T12:15:35.676Z,8.25
2022-11-25T12:18:11.460Z,6.90
2022-11-25T12:20:45.131Z,7.90
2022-11-25T12:23:46.258Z,8.57
2022-11-25T12:26:19.349Z,9.15
2022-11-25T12:29:30.438Z,9.20
2022-11-25T12:32:23.147Z,9.30
2022-11-25T12:35:14.399Z,10.15
2022-11-25T12:38:04.182Z,9.82
2022-11-25T12:40:47.080Z,9.05
2022-11-25T12:43:22.494Z,8.40
2022-11-25T12:45:55.357Z,7.90
2022-11-25T12:48:22.164Z,9.23
2022-11-25T12:51:02.929Z,11.15
2022-11-25T12:53:39.140Z,8.57
2022-11-25T12:56:11.730Z,8.43
2022-11-25T12:59:01.879Z,8.88
2022-11-25T13:02:02.752Z,12.55
2022-11-25T13:04:44.333Z,15.68
2022-11-25T13:07:50.097Z,7.40
2022-11-25T13:10:35.161Z,9.00
2022-11-25T13:13:22.509Z,8.13
2022-11-25T13:15:54.252Z,8.95
2022-11-25T13:18:26.113Z,6.43
2022-11-25T13:21:05.062Z,6.45
2022-11-25T13:23:49.584Z,8.38
2022-11-25T13:26:28.845Z,9.20
2022-11-25T13:28:56.645Z,7.55
2022-11-25T13:31:31.560Z,7.63
2022-11-25T13:34:07.497Z,7.35
2022-11-25T13:36:45.335Z,7.15
2022-11-25T13:39:18.565Z,7.32
2022-11-25T13:41:57.728Z,7.20
2022-11-25T13:44:32.200Z,7.72
2022-11-25T13:47:19.943Z,7.18
2022-11-25T13:49:50.114Z,8.27
2022-11-25T13:52:30.575Z,8.63
2022-11-25T13:54:57.895Z,10.40
2022-11-25T13:57:34.697Z,11.63
2022-11-25T14:00:15.501Z,16.75
2022-11-25T14:02:47.222Z,14.35
2022-11-25T14:05:42.244Z,11.05
2022-11-25T14:08:29.906Z,12.65
2022-11-25T14:11:14.158Z,10.90
2022-11-25T14:14:04.542Z,10.38
2022-11-25T14:16:59.930Z,13.07
2022-11-25T14:20:00.207Z,15.50
2022-11-25T14:22:27.641Z,16.10
2022-11-25T14:25:11.600Z,16.60
2022-11-25T14:27:39.261Z,17.67
2022-11-25T14:30:09.060Z,15.48
2022-11-25T14:32:48.569Z,15.77
2022-11-25T14:35:22.195Z,16.63
2022-11-25T14:38:01.008Z,17.88
2022-11-25T14:40:57.156Z,19.42
2022-11-25T14:43:25.809Z,20.60
2022-11-25T14:46:17.028Z,24.65
2022-11-25T14:48:44.483Z,28.67
2022-11-25T14:51:17.985Z,29.67
2022-11-25T14:53:48.665Z,29.75
2022-11-25T14:56:23.108Z,32.67
2022-11-25T14:58:53.536Z,32.35
2022-11-25T15:01:32.499Z,33.97
2022-11-25T15:04:06.530Z,32.25
2022-11-25T15:06:38.956Z,35.72
2022-11-25T15:09:23.146Z,39.20
2022-11-25T15:12:01.896Z,35.00
2022-11-25T15:14:36.012Z,31.02
2022-11-25T15:17:19.162Z,30.73
2022-11-25T15:19:46.164Z,29.95
2022-11-25T15:22:25.001Z,27.60
2022-11-25T15:24:55.777Z,27.92
2022-11-25T15:27:26.995Z,30.35
2022-11-25T15:29:55.998Z,30.52
2022-11-25T15:32:25.313Z,31.52
2022-11-25T15:34:53.613Z,42.72
2022-11-25T15:37:21.014Z,41.33
2022-11-25T15:39:47.930Z,33.45
2022-11-25T15:42:19.596Z,32.03
2022-11-25T15:44:56.638Z,29.20
2022-11-25T15:47:26.725Z,30.25
2022-11-25T15:50:04.613Z,34.75
2022-11-25T15:52:37.812Z,39.08
2022-11-25T15:55:20.216Z,42.15
2022-11-25T15:57:51.549Z,40.90
2022-11-25T16:00:20.880Z,40.97
2022-11-25T16:02:51.910Z,43.10
2022-11-25T16:05:25.104Z,35.40
2022-11-25T16:07:52.127Z,32.20
2022-11-25T16:10:31.644Z,31.00
2022-11-25T16:13:23.134Z,34.13
2022-11-25T16:15:55.140Z,35.88
2022-11-25T16:18:39.795Z,29.92
2022-11-25T16:21:12.727Z,33.67
2022-11-25T16:23:44.640Z,30.13
2022-11-25T16:26:11.693Z,39.13
2022-11-25T16:28:41.398Z,36.65
2022-11-25T16:31:16.368Z,35.65
2022-11-25T16:33:43.646Z,38.22
2022-11-25T16:36:10.431Z,40.25
2022-11-25T16:38:37.122Z,39.90
2022-11-25T16:41:11.580Z,52.50
2022-11-25T16:43:40.118Z,61.85
2022-11-25T16:46:07.034Z,53.85
2022-11-25T16:48:34.109Z,54.30
2022-11-25T16:51:01.043Z,50.75
2022-11-25T16:53:28.000Z,50.95
2022-11-25T16:55:55.633Z,49.67
2022-11-25T16:58:26.741Z,45.80
2022-11-25T17:00:56.428Z,61.15
2022-11-25T17:03:26.419Z,61.33
2022-11-25T17:05:53.389Z,44.08
2022-11-25T17:08:20.172Z,49.30
2022-11-25T17:10:47.270Z,48.58
2022-11-25T17:13:23.208Z,49.78
2022-11-25T17:15:50.523Z,56.53
2022-11-25T17:18:18.507Z,55.42
2022-11-25T17:20:46.208Z,66.75
2022-11-25T17:23:17.714Z,65.95
2022-11-25T17:25:48.411Z,56.40
2022-11-25T17:28:20.996Z,61.45
2022-11-25T17:30:48.380Z,63.10
2022-11-25T17:33:19.134Z,64.22
2022-11-25T17:35:46.568Z,61.70
2022-11-25T17:38:17.656Z,73.60
2022-11-25T17:40:45.052Z,70.82
2022-11-25T17:43:17.772Z,65.05
2022-11-25T17:45:46.786Z,59.45
2022-11-25T17:48:17.980Z,63.53
2022-11-25T17:50:45.461Z,56.08
2022-11-25T17:53:12.268Z,60.70
2022-11-25T17:55:40.851Z,52.63
2022-11-25T17:58:11.935Z,60.40
2022-11-25T18:00:41.393Z,64.50
2022-11-25T18:03:16.478Z,72.82
2022-11-25T18:05:43.806Z,59.22
2022-11-25T18:08:10.634Z,54.08
2022-11-25T18:10:39.053Z,37.38
2022-11-25T18:13:06.447Z,48.95
2022-11-25T18:15:34.771Z,59.25
2022-11-25T18:18:05.099Z,44.65
2022-11-25T18:20:33.218Z,61.05
2022-11-25T18:23:00.757Z,48.28
2022-11-25T18:25:31.251Z,52.83
2022-11-25T18:28:00.093Z,58.20
2022-11-25T18:30:29.604Z,61.40
2022-11-25T18:32:57.311Z,65.55
2022-11-25T18:35:31.079Z,58.38
2022-11-25T18:38:01.134Z,70.47
2022-11-25T18:40:29.656Z,76.40
2022-11-25T18:43:00.391Z,68.35
2022-11-25T18:45:40.439Z,88.82
2022-11-25T18:48:17.918Z,76.80
2022-11-25T18:50:46.032Z,56.25
2022-11-25T18:53:13.280Z,49.35
2022-11-25T18:55:40.622Z,64.75
2022-11-25T18:58:19.412Z,60.15
2022-11-25T19:00:48.576Z,52.58
2022-11-25T19:03:22.043Z,56.75
2022-11-25T19:05:49.227Z,59.70
2022-11-25T19:08:16.487Z,58.95
2022-11-25T19:10:45.531Z,61.55
2022-11-25T19:13:23.517Z,61.30
2022-11-25T19:15:50.450Z,54.15
2022-11-25T19:18:26.789Z,69.20
2022-11-25T19:20:53.753Z,70.80
2022-11-25T19:23:25.641Z,76.82
2022-11-25T19:25:54.908Z,71.68
2022-11-25T19:28:22.336Z,77.15
2022-11-25T19:31:00.190Z,65.50
2022-11-25T19:33:34.096Z,62.35
2022-11-25T19:36:01.343Z,70.75
2022-11-25T19:38:29.607Z,82.15
2022-11-25T19:40:57.709Z,54.05
2022-11-25T19:43:28.471Z,50.30
2022-11-25T19:45:56.927Z,55.10
2022-11-25T19:48:27.154Z,66.97
2022-11-25T19:50:59.665Z,47.70
2022-11-25T19:53:33.103Z,58.83
2022-11-25T19:56:04.138Z,49.08
2022-11-25T19:58:31.420Z,50.92
2022-11-25T20:01:03.349Z,42.28
2022-11-25T20:03:32.015Z,46.25
2022-11-25T20:05:59.401Z,44.15
2022-11-25T20:08:28.966Z,45.72
2022-11-25T20:10:56.598Z,47.92
2022-11-25T20:13:26.037Z,58.75
2022-11-25T20:15:55.258Z,99.40
2022-11-25T20:18:25.666Z,115.43
2022-11-25T20:21:01.214Z,122.45
2022-11-25T20:23:43.770Z,112.88
2022-11-25T20:26:18.728Z,101.07
2022-11-25T20:28:46.069Z,103.20
2022-11-25T20:31:14.114Z,96.43
2022-11-25T20:33:41.825Z,81.28
2022-11-25T20:36:15.335Z,72.15
2022-11-25T20:38:52.744Z,55.10
2022-11-25T20:41:24.392Z,56.53
2022-11-25T20:43:54.954Z,62.90
2022-11-25T20:46:24.427Z,59.80
2022-11-25T20:48:55.311Z,62.75
2022-11-25T20:51:23.070Z,82.55
2022-11-25T20:54:01.377Z,52.88
2022-11-25T20:56:29.313Z,59.95
2022-11-25T20:58:57.003Z,55.15
2022-11-25T21:01:23.879Z,46.67
2022-11-25T21:03:51.205Z,43.95
2022-11-25T21:06:19.487Z,45.38
2022-11-25T21:08:51.766Z,48.22
2022-11-25T21:11:20.812Z,52.53
2022-11-25T21:13:48.568Z,37.67
2022-11-25T21:16:15.855Z,49.63
2022-11-25T21:18:43.312Z,41.17
2022-11-25T21:21:30.050Z,53.33
2022-11-25T21:23:57.789Z,46.15
2022-11-25T21:26:26.625Z,38.97
2022-11-25T21:28:54.656Z,28.85
2022-11-25T21:31:25.988Z,40.25
2022-11-25T21:34:00.360Z,29.10
2022-11-25T21:36:31.332Z,24.15
2022-11-25T21:39:07.883Z,17.90
2022-11-25T21:41:35.920Z,17.90
2022-11-25T21:44:06.293Z,20.95
2022-11-25T21:46:33.703Z,18.77
2022-11-25T21:49:01.105Z,19.15
2022-11-25T21:51:30.050Z,31.85
2022-11-25T21:54:00.508Z,26.83
2022-11-25T21:56:34.044Z,29.20
2022-11-25T21:59:05.314Z,31.30
2022-11-25T22:01:33.932Z,37.58
2022-11-25T22:04:01.339Z,42.38
2022-11-25T22:06:30.814Z,32.50
2022-11-25T22:08:57.863Z,22.85
2022-11-25T22:11:31.723Z,21.48
2022-11-25T22:14:02.361Z,19.05
2022-11-25T22:16:33.035Z,16.98
2022-11-25T22:19:00.009Z,18.40
2022-11-25T22:21:26.873Z,15.65
2022-11-25T22:23:54.220Z,20.52
2022-11-25T22:26:29.407Z,24.80
2022-11-25T22:28:56.883Z,30.85
2022-11-25T22:31:24.909Z,29.17
2022-11-25T22:33:52.291Z,27.48
2022-11-25T22:36:29.705Z,39.13
2022-11-25T22:39:09.723Z,28.00
2022-11-25T22:41:36.767Z,33.72
2022-11-25T22:44:04.172Z,34.65
2022-11-25T22:46:33.427Z,49.25
2022-11-25T22:49:00.268Z,33.05
2022-11-25T22:51:27.969Z,34.33
2022-11-25T22:53:55.153Z,47.30
2022-11-25T22:56:22.439Z,48.33
2022-11-25T22:58:49.236Z,47.97
2022-11-25T23:01:17.180Z,50.92
2022-11-25T23:03:44.656Z,63.20
2022-11-25T23:06:13.332Z,54.25
2022-11-25T23:08:40.373Z,47.38
2022-11-25T23:11:14.588Z,54.05
2022-11-25T23:13:41.459Z,40.05
2022-11-25T23:16:11.009Z,44.88
2022-11-25T23:18:46.739Z,38.88
2022-11-25T23:21:18.516Z,45.22
2022-11-25T23:23:45.763Z,40.80
2022-11-25T23:26:13.646Z,34.70
2022-11-25T23:28:40.485Z,42.67
2022-11-25T23:31:10.113Z,45.20
2022-11-25T23:33:45.801Z,48.78
2022-11-25T23:36:23.462Z,41.92
2022-11-25T23:38:52.108Z,46.83
2022-11-25T23:41:25.075Z,50.83
2022-11-25T23:43:52.512Z,55.38
2022-11-25T23:46:22.927Z,58.95
2022-11-25T23:48:59.630Z,52.90
2022-11-25T23:51:28.281Z,58.00
2022-11-25T23:53:56.499Z,44.33
2022-11-25T23:56:24.686Z,52.80
2022-11-25T23:58:51.471Z,46.78
